Time;durP1;ratioP1;P1;durP2;ratioP2;P2;SDS_P1;SDS_P2;PMS_P1;PMS_P2;Temp;Humidity;BMP_temperature;BMP_pressure;BME280_temperature;BME280_humidity;BME280_pressure;Samples;Min_cycle;Max_cycle;Signal;HPM_P1;HPM_P2
2022/07/13 00:00:20;;;;;;;0.00;0.00;;;18.60;90.10;;;;;;5085364;28;20020;-74
2022/07/13 00:02:46;;;;;;;0.00;0.00;;;18.50;90.60;;;;;;5094722;28;20022;-75
2022/07/13 00:05:12;;;;;;;0.00;0.00;;;18.50;93.50;;;;;;5096341;28;20044;-74
2022/07/13 00:07:38;;;;;;;0.00;0.00;;;18.40;93.80;;;;;;5095230;28;20101;-75
2022/07/13 00:10:05;;;;;;;0.00;0.00;;;18.50;93.60;;;;;;5109065;28;20022;-74
2022/07/13 00:12:31;;;;;;;0.00;0.00;;;18.40;93.80;;;;;;5130410;27;20032;-75
2022/07/13 00:14:57;;;;;;;0.00;0.00;;;18.50;93.60;;;;;;5109764;28;20044;-75
2022/07/13 00:17:23;;;;;;;0.00;0.00;;;18.50;92.00;;;;;;5107078;28;20011;-75
2022/07/13 00:19:49;;;;;;;0.00;0.00;;;18.80;93.30;;;;;;5137067;27;20031;-76
2022/07/13 00:22:16;;;;;;;0.00;0.00;;;18.90;93.00;;;;;;5094143;28;20535;-76
2022/07/13 00:24:42;;;;;;;0.00;0.00;;;19.30;94.90;;;;;;5076748;28;20043;-75
2022/07/13 00:27:08;;;;;;;0.00;0.00;;;19.50;92.70;;;;;;5097353;28;20111;-75
2022/07/13 00:29:34;;;;;;;0.08;0.08;;;19.90;92.90;;;;;;5087668;28;20153;-75
2022/07/13 00:32:00;;;;;;;0.00;0.00;;;20.40;90.00;;;;;;5094008;28;20372;-74
2022/07/13 00:34:26;;;;;;;0.00;0.00;;;20.90;87.90;;;;;;5094324;28;20020;-75
2022/07/13 00:36:52;;;;;;;29.30;8.68;;;21.70;80.80;;;;;;5095700;28;20099;-75
2022/07/13 00:39:18;;;;;;;0.10;0.10;;;22.60;77.10;;;;;;5077881;28;20147;-75
2022/07/13 00:41:45;;;;;;;0.00;0.00;;;23.40;70.60;;;;;;5086678;28;20038;-75
2022/07/13 00:44:14;;;;;;;0.00;0.00;;;24.20;68.60;;;;;;5112264;28;20478;-76
2022/07/13 00:46:51;;;;;;;0.08;0.08;;;25.20;62.30;;;;;;5110556;28;20098;-75
2022/07/13 00:49:18;;;;;;;0.00;0.00;;;25.50;59.30;;;;;;5109421;28;20022;-76
2022/07/13 00:51:44;;;;;;;0.43;0.43;;;25.70;58.70;;;;;;5094999;28;20027;-76
2022/07/13 00:54:11;;;;;;;0.08;0.08;;;25.80;57.20;;;;;;5111385;28;20058;-76
2022/07/13 00:56:38;;;;;;;1.40;1.30;;;25.70;56.50;;;;;;5088965;28;20096;-76
2022/07/13 00:59:06;;;;;;;0.20;0.20;;;25.70;54.30;;;;;;5109721;28;20103;-76
2022/07/13 01:01:33;;;;;;;0.00;0.00;;;25.80;54.00;;;;;;5113044;28;20102;-76
2022/07/13 01:03:59;;;;;;;0.30;0.30;;;25.90;54.50;;;;;;5089884;28;20103;-76
2022/07/13 01:06:25;;;;;;;0.80;0.80;;;27.20;53.50;;;;;;5082425;28;20023;-76
2022/07/13 01:08:51;;;;;;;1.85;1.75;;;27.90;51.00;;;;;;5093380;28;20115;-75
2022/07/13 01:11:17;;;;;;;0.10;0.10;;;28.90;49.80;;;;;;5113648;28;20020;-75
2022/07/13 01:13:45;;;;;;;0.52;0.52;;;29.50;47.70;;;;;;5104905;28;20027;-75
2022/07/13 01:16:11;;;;;;;0.40;0.40;;;29.10;47.80;;;;;;5117502;28;20490;-75
2022/07/13 01:18:38;;;;;;;5.07;4.63;;;28.40;47.50;;;;;;5109252;28;20462;-75
2022/07/13 01:21:06;;;;;;;1.13;1.08;;;28.20;48.50;;;;;;5080990;28;20055;-75
2022/07/13 01:23:32;;;;;;;0.00;0.00;;;29.00;47.60;;;;;;5096443;28;20427;-75
2022/07/13 01:25:59;;;;;;;0.30;0.30;;;28.60;49.60;;;;;;5096162;28;20351;-75
2022/07/13 01:28:26;;;;;;;1.10;1.00;;;28.50;49.60;;;;;;5110491;27;20047;-75
2022/07/13 01:30:52;;;;;;;0.28;0.28;;;28.20;48.30;;;;;;5090519;28;20126;-75
2022/07/13 01:33:18;;;;;;;0.20;0.20;;;28.10;46.80;;;;;;5095371;27;20101;-75
2022/07/13 01:35:44;;;;;;;0.00;0.00;;;27.10;46.00;;;;;;5097463;28;20034;-76
2022/07/13 01:38:10;;;;;;;0.30;0.20;;;27.10;45.50;;;;;;5087324;28;20039;-76
2022/07/13 01:40:37;;;;;;;0.22;0.22;;;26.20;48.60;;;;;;5104255;28;20543;-75
2022/07/13 01:43:03;;;;;;;0.00;0.00;;;26.50;47.80;;;;;;5082568;28;20487;-76
2022/07/13 01:45:29;;;;;;;0.95;0.95;;;26.50;48.40;;;;;;5086808;28;20505;-77
2022/07/13 01:47:56;;;;;;;0.00;0.00;;;27.00;49.70;;;;;;5104315;28;20035;-75
2022/07/13 01:50:24;;;;;;;0.00;0.00;;;27.20;49.00;;;;;;5099147;28;20088;-75
2022/07/13 01:52:50;;;;;;;0.00;0.00;;;27.90;48.40;;;;;;5110606;28;20024;-74
2022/07/13 01:55:17;;;;;;;1.45;1.35;;;28.10;48.10;;;;;;5112306;28;20484;-76
2022/07/13 01:57:43;;;;;;;0.00;0.00;;;28.30;45.50;;;;;;5101105;28;20032;-76
2022/07/13 02:00:16;;;;;;;0.00;0.00;;;28.10;45.10;;;;;;5092303;28;20028;-75
2022/07/13 02:02:42;;;;;;;0.85;0.85;;;28.40;45.90;;;;;;5092568;28;20082;-75
2022/07/13 02:05:12;;;;;;;0.98;0.47;;;28.00;45.40;;;;;;5092576;28;20048;-75
2022/07/13 02:07:39;;;;;;;0.00;0.00;;;27.80;46.80;;;;;;5092704;28;20024;-74
2022/07/13 02:10:06;;;;;;;0.00;0.00;;;28.00;45.70;;;;;;5078162;28;20032;-75
2022/07/13 02:12:32;;;;;;;0.20;0.20;;;27.80;48.00;;;;;;5105612;28;20500;-75
2022/07/13 02:14:58;;;;;;;0.00;0.00;;;29.10;44.10;;;;;;5112999;28;20028;-75
2022/07/13 02:17:24;;;;;;;0.00;0.00;;;30.00;43.00;;;;;;5085737;28;20020;-75
2022/07/13 02:19:51;;;;;;;0.00;0.00;;;30.50;40.50;;;;;;5088210;28;20390;-74
2022/07/13 02:22:17;;;;;;;0.00;0.00;;;30.00;40.50;;;;;;5086991;28;20787;-75
2022/07/13 02:24:43;;;;;;;0.00;0.00;;;29.90;41.60;;;;;;5095699;28;20428;-74
2022/07/13 02:27:10;;;;;;;0.35;0.35;;;31.20;39.40;;;;;;5094567;28;20024;-75
2022/07/13 02:29:36;;;;;;;0.00;0.00;;;32.20;37.90;;;;;;5097217;28;20111;-76
2022/07/13 02:32:02;;;;;;;0.00;0.00;;;33.00;36.80;;;;;;5078892;28;20562;-78
2022/07/13 02:34:28;;;;;;;0.00;0.00;;;32.90;36.40;;;;;;5077111;28;20028;-74
2022/07/13 02:37:00;;;;;;;0.00;0.00;;;31.20;39.40;;;;;;5087226;28;20088;-76
2022/07/13 02:39:26;;;;;;;0.00;0.00;;;29.80;40.70;;;;;;5101826;28;20070;-77
2022/07/13 02:41:52;;;;;;;0.00;0.00;;;29.20;41.40;;;;;;5101167;28;20024;-76
2022/07/13 02:44:18;;;;;;;0.00;0.00;;;30.00;41.40;;;;;;5106164;28;20026;-76
2022/07/13 02:46:44;;;;;;;0.00;0.00;;;31.70;38.50;;;;;;5103708;27;20084;-76
2022/07/13 02:49:11;;;;;;;0.00;0.00;;;32.70;37.10;;;;;;5087563;28;20027;-77
2022/07/13 02:51:37;;;;;;;0.10;0.10;;;33.50;35.50;;;;;;5107746;27;20051;-76
2022/07/13 02:54:03;;;;;;;0.00;0.00;;;34.50;34.40;;;;;;5102218;27;20038;-77
2022/07/13 02:56:29;;;;;;;0.00;0.00;;;35.00;32.80;;;;;;5100125;27;20033;-77
2022/07/13 02:58:55;;;;;;;0.00;0.00;;;35.60;31.50;;;;;;5105592;27;20027;-77
2022/07/13 03:01:21;;;;;;;0.20;0.20;;;35.70;30.50;;;;;;5085086;28;20034;-78
2022/07/13 03:03:47;;;;;;;0.05;0.05;;;34.90;32.80;;;;;;5107114;27;20478;-79
2022/07/13 03:06:13;;;;;;;0.47;0.35;;;31.90;34.60;;;;;;5087458;28;20085;-78
2022/07/13 03:08:39;;;;;;;0.52;0.52;;;31.40;36.30;;;;;;5099207;27;20036;-76
2022/07/13 03:11:05;;;;;;;0.15;0.15;;;32.40;35.00;;;;;;5086129;27;20028;-77
2022/07/13 03:13:31;;;;;;;0.20;0.20;;;33.40;34.00;;;;;;5092439;27;20028;-76
2022/07/13 03:15:57;;;;;;;0.28;0.28;;;33.00;34.70;;;;;;5106183;27;20023;-76
2022/07/13 03:18:23;;;;;;;0.60;0.60;;;32.60;34.00;;;;;;5108984;27;20024;-75
2022/07/13 03:20:49;;;;;;;0.10;0.10;;;32.60;35.10;;;;;;5106653;27;20026;-75
2022/07/13 03:23:15;;;;;;;0.47;0.47;;;32.60;33.90;;;;;;5119604;27;20031;-75
2022/07/13 03:25:41;;;;;;;0.57;0.57;;;32.60;33.70;;;;;;5103672;28;20023;-78
2022/07/13 03:28:07;;;;;;;0.05;0.05;;;33.40;34.00;;;;;;5120083;28;20023;-76
2022/07/13 03:30:33;;;;;;;0.00;0.00;;;33.40;33.60;;;;;;5108976;28;20024;-77
2022/07/13 03:32:59;;;;;;;0.00;0.00;;;34.20;32.90;;;;;;5087132;27;20024;-76
2022/07/13 03:35:25;;;;;;;5.03;1.08;;;33.00;33.80;;;;;;5110826;27;20069;-76
2022/07/13 03:37:54;;;;;;;1.38;1.15;;;32.90;33.80;;;;;;5110108;28;20024;-75
2022/07/13 03:40:20;;;;;;;0.10;0.10;;;33.20;32.70;;;;;;5104964;27;20129;-75
2022/07/13 03:42:46;;;;;;;0.00;0.00;;;31.80;34.50;;;;;;5083657;27;20015;-76
2022/07/13 03:45:12;;;;;;;0.47;0.47;;;31.90;32.40;;;;;;5083622;28;20024;-77
2022/07/13 03:47:39;;;;;;;0.00;0.00;;;31.20;35.60;;;;;;5102165;27;20011;-77
2022/07/13 03:50:05;;;;;;;0.00;0.00;;;30.30;35.70;;;;;;5098422;28;20573;-77
2022/07/13 03:52:31;;;;;;;0.20;0.10;;;30.70;35.30;;;;;;5106790;28;20383;-76
2022/07/13 03:54:57;;;;;;;0.17;0.15;;;30.80;36.00;;;;;;5105936;27;20128;-75
2022/07/13 03:57:23;;;;;;;0.10;0.10;;;31.00;35.30;;;;;;5103576;27;20132;-76
2022/07/13 03:59:49;;;;;;;0.00;0.00;;;30.80;34.80;;;;;;5098580;27;20024;-76
2022/07/13 04:02:16;;;;;;;0.00;0.00;;;30.20;35.20;;;;;;5099490;27;20027;-76
2022/07/13 04:04:42;;;;;;;0.15;0.15;;;29.50;34.70;;;;;;5106703;28;20474;-75
2022/07/13 04:07:08;;;;;;;0.00;0.00;;;29.30;35.10;;;;;;5107968;27;20031;-75
2022/07/13 04:09:34;;;;;;;0.00;0.00;;;29.40;35.80;;;;;;5085689;28;20032;-79
2022/07/13 04:12:00;;;;;;;0.20;0.20;;;29.50;36.20;;;;;;5106834;28;20378;-75
2022/07/13 04:14:26;;;;;;;0.28;0.17;;;29.70;36.80;;;;;;5105394;28;20023;-76
2022/07/13 04:16:55;;;;;;;0.43;0.43;;;28.60;36.80;;;;;;5100863;28;20100;-76
2022/07/13 04:19:21;;;;;;;0.20;0.20;;;28.80;36.50;;;;;;5099286;27;20039;-75
2022/07/13 04:21:47;;;;;;;0.00;0.00;;;28.70;37.10;;;;;;5106383;28;20099;-74
2022/07/13 04:24:13;;;;;;;0.08;0.08;;;28.20;38.40;;;;;;5102997;27;20043;-74
2022/07/13 04:26:39;;;;;;;0.28;0.28;;;28.70;38.40;;;;;;5084006;28;20105;-75
2022/07/13 04:29:05;;;;;;;0.43;0.43;;;29.00;37.80;;;;;;5101733;28;20505;-75
2022/07/13 04:31:31;;;;;;;0.05;0.05;;;28.30;38.30;;;;;;5100175;28;20487;-74
2022/07/13 04:33:57;;;;;;;0.00;0.00;;;28.30;37.70;;;;;;5097807;28;20028;-78
2022/07/13 04:36:23;;;;;;;0.00;0.00;;;28.50;37.40;;;;;;5100354;28;20031;-79
2022/07/13 04:38:49;;;;;;;0.10;0.10;;;28.90;37.40;;;;;;5080795;28;20524;-75
2022/07/13 04:41:15;;;;;;;0.03;0.03;;;28.40;37.50;;;;;;5095628;27;20032;-75
2022/07/13 04:43:45;;;;;;;0.00;0.00;;;28.30;38.10;;;;;;5104663;27;20063;-75
2022/07/13 04:46:13;;;;;;;0.00;0.00;;;28.40;38.70;;;;;;5104401;28;20420;-74
2022/07/13 04:48:39;;;;;;;0.17;0.15;;;28.30;37.30;;;;;;5084772;28;20020;-74
2022/07/13 04:51:05;;;;;;;0.00;0.00;;;27.90;36.80;;;;;;5105946;27;20596;-75
2022/07/13 04:53:34;;;;;;;0.80;0.50;;;28.00;37.90;;;;;;5084474;28;20030;-76
2022/07/13 04:56:01;;;;;;;0.10;0.10;;;28.40;37.00;;;;;;5103299;27;20463;-74
2022/07/13 04:58:27;;;;;;;0.20;0.20;;;28.60;37.10;;;;;;5102013;27;20023;-75
2022/07/13 05:00:53;;;;;;;0.00;0.00;;;28.30;37.60;;;;;;5100506;28;20032;-74
2022/07/13 05:03:19;;;;;;;0.00;0.00;;;28.60;36.90;;;;;;5083409;28;20115;-75
2022/07/13 05:05:45;;;;;;;0.00;0.00;;;28.70;37.00;;;;;;5098757;28;20066;-75
2022/07/13 05:08:11;;;;;;;0.00;0.00;;;28.80;36.20;;;;;;5102437;27;20039;-75
2022/07/13 05:10:38;;;;;;;1.08;0.65;;;28.90;37.10;;;;;;5103524;28;20022;-76
2022/07/13 05:13:04;;;;;;;1.77;0.28;;;28.60;37.90;;;;;;5109414;27;20024;-80
2022/07/13 05:15:30;;;;;;;0.00;0.00;;;28.20;38.80;;;;;;5104616;27;20150;-81
2022/07/13 05:17:56;;;;;;;0.00;0.00;;;28.10;36.80;;;;;;5097969;28;20043;-79
2022/07/13 05:20:22;;;;;;;0.10;0.10;;;28.00;37.00;;;;;;5113946;27;20028;-78
2022/07/13 05:22:48;;;;;;;0.00;0.00;;;28.40;39.00;;;;;;5113565;28;20031;-81
2022/07/13 05:25:14;;;;;;;1.35;1.25;;;28.30;38.00;;;;;;5108647;28;20036;-78
2022/07/13 05:27:40;;;;;;;0.00;0.00;;;28.40;37.20;;;;;;5105446;28;20024;-78
2022/07/13 05:30:07;;;;;;;0.20;0.15;;;28.20;37.80;;;;;;5079310;28;20028;-77
2022/07/13 05:32:33;;;;;;;0.00;0.00;;;28.10;38.10;;;;;;5096121;27;20119;-78
2022/07/13 05:34:59;;;;;;;0.00;0.00;;;28.00;38.30;;;;;;5098844;28;20081;-77
2022/07/13 05:37:25;;;;;;;0.45;0.45;;;28.30;38.50;;;;;;5084423;28;20030;-75
2022/07/13 05:39:51;;;;;;;0.00;0.00;;;28.40;37.60;;;;;;5103349;27;20525;-75
2022/07/13 05:42:17;;;;;;;0.38;0.38;;;28.60;37.80;;;;;;5100804;28;20020;-77
2022/07/13 05:44:43;;;;;;;0.45;0.30;;;28.30;37.10;;;;;;5090283;27;20020;-75
2022/07/13 05:47:09;;;;;;;0.00;0.00;;;28.40;37.70;;;;;;5109123;27;20015;-76
2022/07/13 05:49:35;;;;;;;0.00;0.00;;;28.40;38.00;;;;;;5105876;28;20036;-75
2022/07/13 05:52:01;;;;;;;0.20;0.10;;;28.50;37.70;;;;;;5085206;28;20077;-77
2022/07/13 05:54:27;;;;;;;0.35;0.13;;;28.60;37.00;;;;;;5099605;28;21090;-79
2022/07/13 05:56:53;;;;;;;0.10;0.10;;;28.40;37.00;;;;;;5108938;28;20019;-77
2022/07/13 05:59:19;;;;;;;0.00;0.00;;;28.30;37.70;;;;;;5102809;28;20031;-77
2022/07/13 06:01:45;;;;;;;0.30;0.10;;;28.60;37.20;;;;;;5087724;28;20035;-74
2022/07/13 06:04:11;;;;;;;0.20;0.10;;;28.40;37.80;;;;;;5111847;28;20027;-76
2022/07/13 06:06:37;;;;;;;0.25;0.25;;;28.10;38.50;;;;;;5121753;28;20450;-73
2022/07/13 06:09:04;;;;;;;0.00;0.00;;;28.30;38.30;;;;;;5112347;28;20019;-75
2022/07/13 06:11:30;;;;;;;0.05;0.05;;;28.40;38.60;;;;;;5101320;28;20024;-76
2022/07/13 06:13:56;;;;;;;0.45;0.28;;;28.60;37.30;;;;;;5103372;28;20043;-76
2022/07/13 06:16:22;;;;;;;0.52;0.28;;;28.50;36.60;;;;;;5112579;27;20019;-73
2022/07/13 06:18:48;;;;;;;0.00;0.00;;;28.40;35.60;;;;;;5108945;28;20359;-76
2022/07/13 06:21:14;;;;;;;0.10;0.10;;;28.30;35.00;;;;;;5089015;28;20389;-75
2022/07/13 06:23:40;;;;;;;3.00;2.03;;;28.50;36.70;;;;;;5110496;27;20023;-76
2022/07/13 06:26:06;;;;;;;0.00;0.00;;;28.40;36.80;;;;;;5108137;27;20027;-78
2022/07/13 06:28:33;;;;;;;0.00;0.00;;;28.60;36.90;;;;;;5104928;27;20028;-79
2022/07/13 06:30:59;;;;;;;15.13;6.25;;;28.50;34.30;;;;;;5108684;28;20046;-76
2022/07/13 06:33:25;;;;;;;0.47;0.13;;;28.70;37.60;;;;;;5105306;27;20724;-78
2022/07/13 06:35:51;;;;;;;0.28;0.28;;;28.80;36.30;;;;;;5095567;28;20123;-77
2022/07/13 06:38:17;;;;;;;0.80;0.80;;;28.60;35.60;;;;;;5102377;27;20054;-79
2022/07/13 06:40:43;;;;;;;0.57;0.20;;;28.70;37.50;;;;;;5092402;27;20040;-78
2022/07/13 06:43:09;;;;;;;0.00;0.00;;;28.60;37.40;;;;;;5101429;27;20032;-79
2022/07/13 06:45:35;;;;;;;0.00;0.00;;;28.80;37.30;;;;;;5100471;27;20047;-78
2022/07/13 06:48:04;;;;;;;0.20;0.20;;;29.10;35.70;;;;;;5084211;27;20062;-83
2022/07/13 06:50:30;;;;;;;0.77;0.77;;;29.00;36.50;;;;;;5104955;28;20073;-81
2022/07/13 06:52:56;;;;;;;0.35;0.17;;;29.00;36.90;;;;;;5111590;27;20031;-82
2022/07/13 06:55:22;;;;;;;1.00;1.00;;;29.20;36.80;;;;;;5097245;27;20051;-81
2022/07/13 06:57:49;;;;;;;0.73;0.32;;;28.80;37.30;;;;;;5119365;27;20509;-83
2022/07/13 07:00:15;;;;;;;0.17;0.17;;;29.00;37.90;;;;;;5099825;28;20032;-83
2022/07/13 07:02:41;;;;;;;0.38;0.32;;;29.10;38.20;;;;;;5115447;28;20035;-81
2022/07/13 07:05:11;;;;;;;0.77;0.77;;;29.20;36.20;;;;;;5113491;27;20020;-83
2022/07/13 07:07:38;;;;;;;0.20;0.20;;;28.80;37.10;;;;;;5108302;27;20023;-83
2022/07/13 07:10:05;;;;;;;2.55;0.63;;;28.60;37.30;;;;;;5088859;28;20028;-86
2022/07/13 07:12:31;;;;;;;0.00;0.00;;;28.70;36.80;;;;;;5125297;27;20087;-84
2022/07/13 07:14:57;;;;;;;11.55;1.55;;;28.80;36.60;;;;;;5110101;27;20106;-82
2022/07/13 07:17:23;;;;;;;7.72;1.95;;;29.20;36.10;;;;;;5091101;28;20119;-80
2022/07/13 07:19:49;;;;;;;0.10;0.10;;;29.30;36.80;;;;;;5104722;28;20054;-81
2022/07/13 07:22:15;;;;;;;0.05;0.05;;;29.00;38.10;;;;;;5115425;27;20386;-81
2022/07/13 07:24:42;;;;;;;0.05;0.05;;;29.20;38.20;;;;;;5110437;27;20031;-81
2022/07/13 07:27:10;;;;;;;0.00;0.00;;;29.40;37.20;;;;;;5086187;28;20039;-83
2022/07/13 07:29:37;;;;;;;0.10;0.10;;;29.70;36.30;;;;;;5103965;27;20051;-82
2022/07/13 07:32:04;;;;;;;6.85;1.30;;;29.80;36.20;;;;;;5088212;28;20119;-86
2022/07/13 07:34:30;;;;;;;0.98;0.80;;;29.80;36.30;;;;;;5107731;27;20034;-82
2022/07/13 07:36:56;;;;;;;0.00;0.00;;;29.60;35.90;;;;;;5104682;27;20101;-81
2022/07/13 07:39:22;;;;;;;0.00;0.00;;;29.20;36.40;;;;;;5101200;27;20064;-81
2022/07/13 07:41:49;;;;;;;0.00;0.00;;;29.50;35.50;;;;;;5083102;28;20097;-83
2022/07/13 07:44:15;;;;;;;0.00;0.00;;;29.70;35.50;;;;;;5091401;28;20032;-82
2022/07/13 07:46:42;;;;;;;0.00;0.00;;;29.10;33.40;;;;;;5124496;27;20020;-81
2022/07/13 07:49:08;;;;;;;0.10;0.10;;;29.40;34.40;;;;;;5109078;28;20155;-81
2022/07/13 07:51:34;;;;;;;0.00;0.00;;;29.70;34.80;;;;;;5114030;27;20645;-80
2022/07/13 07:54:00;;;;;;;0.20;0.20;;;30.10;34.80;;;;;;5089154;28;20107;-79
2022/07/13 07:56:26;;;;;;;0.00;0.00;;;30.10;33.90;;;;;;5101577;27;20103;-85
2022/07/13 07:58:52;;;;;;;0.28;0.10;;;30.30;33.80;;;;;;5090228;28;20055;-88
2022/07/13 08:01:19;;;;;;;0.40;0.20;;;30.50;33.70;;;;;;5107310;27;20024;-80
2022/07/13 08:03:45;;;;;;;0.52;0.20;;;30.50;33.80;;;;;;5088838;28;20051;-83
2022/07/13 08:06:11;;;;;;;0.00;0.00;;;31.00;33.10;;;;;;5117842;28;20015;-84
2022/07/13 08:08:38;;;;;;;0.40;0.40;;;31.00;33.70;;;;;;5120867;28;20024;-84
2022/07/13 08:11:09;;;;;;;0.00;0.00;;;30.90;34.00;;;;;;5117835;27;20031;-84
2022/07/13 08:13:36;;;;;;;0.00;0.00;;;30.50;32.50;;;;;;5113375;27;20015;-85
2022/07/13 08:16:03;;;;;;;0.00;0.00;;;30.90;32.80;;;;;;5087563;28;20027;-85
2022/07/13 08:18:29;;;;;;;0.20;0.20;;;31.20;33.10;;;;;;5094492;27;20054;-84
2022/07/13 08:20:55;;;;;;;0.00;0.00;;;31.30;32.20;;;;;;5092743;28;20039;-85
2022/07/13 08:26:06;;;;;;;0.00;0.00;;;31.50;32.60;;;;;;5113424;27;20054;-87
2022/07/13 08:28:32;;;;;;;0.00;0.00;;;31.70;32.70;;;;;;5107654;28;20077;-84
2022/07/13 08:30:58;;;;;;;0.40;0.25;;;31.90;33.10;;;;;;5092001;28;20432;-86
2022/07/13 08:38:53;;;;;;;0.25;0.25;;;30.20;34.40;;;;;;5097912;28;20054;-83
2022/07/13 08:41:19;;;;;;;1.08;0.65;;;30.10;35.30;;;;;;5091783;27;20114;-86
2022/07/13 08:43:45;;;;;;;0.80;0.40;;;29.00;39.60;;;;;;5126181;28;20023;-86
2022/07/13 08:46:11;;;;;;;1.08;0.50;;;28.30;41.50;;;;;;5121042;28;20027;-86
2022/07/13 08:48:44;;;;;;;1.40;0.82;;;28.00;41.60;;;;;;5110840;27;20079;-85
2022/07/13 08:51:10;;;;;;;2.00;0.70;;;28.10;41.90;;;;;;5114323;27;20111;-88
2022/07/13 08:53:36;;;;;;;1.23;0.68;;;28.30;41.40;;;;;;5112590;27;20027;-85
2022/07/13 08:56:02;;;;;;;1.75;0.35;;;28.30;42.10;;;;;;5091287;28;20019;-83
2022/07/13 08:58:30;;;;;;;1.05;0.70;;;27.90;42.30;;;;;;5102249;28;20385;-85
2022/07/13 09:00:56;;;;;;;1.42;0.40;;;28.20;42.60;;;;;;5099737;28;20458;-86
2022/07/13 09:03:22;;;;;;;0.13;0.13;;;28.40;42.50;;;;;;5104640;27;20501;-87
2022/07/13 09:05:48;;;;;;;1.35;0.40;;;28.40;43.20;;;;;;5112517;28;20484;-84
2022/07/13 09:08:14;;;;;;;0.55;0.40;;;28.20;46.80;;;;;;5110908;27;20501;-88
2022/07/13 09:10:58;;;;;;;1.08;0.32;;;28.10;54.00;;;;;;5092634;28;20041;-87
2022/07/13 09:13:39;;;;;;;0.70;0.57;;;28.40;50.80;;;;;;5089798;28;20053;-85
2022/07/13 09:16:24;;;;;;;1.52;0.43;;;28.00;49.00;;;;;;5087993;27;20423;-86
2022/07/13 09:18:56;;;;;;;0.57;0.57;;;27.90;44.20;;;;;;5121249;27;20019;-88
2022/07/13 09:21:27;;;;;;;0.03;0.03;;;28.10;44.50;;;;;;5124309;27;20019;-84
2022/07/13 09:23:58;;;;;;;0.52;0.32;;;28.50;42.80;;;;;;5090728;28;20509;-87
2022/07/13 09:26:42;;;;;;;0.10;0.10;;;29.20;41.00;;;;;;5101195;28;20036;-88
2022/07/13 09:29:11;;;;;;;0.00;0.00;;;29.80;40.00;;;;;;5094512;28;20031;-88
2022/07/13 09:31:55;;;;;;;0.00;0.00;;;30.00;38.00;;;;;;5094025;28;20047;-88
2022/07/13 09:34:41;;;;;;;0.00;0.00;;;30.40;36.10;;;;;;5101378;28;20119;-87
2022/07/13 09:37:11;;;;;;;0.28;0.28;;;30.70;35.00;;;;;;5113794;28;20386;-88
2022/07/13 09:40:07;;;;;;;0.00;0.00;;;30.00;35.10;;;;;;5102399;28;20047;-90
2022/07/13 09:42:39;;;;;;;0.00;0.00;;;30.20;35.70;;;;;;5080678;28;20036;-88
2022/07/13 09:47:55;;;;;;;0.10;0.10;;;30.50;35.30;;;;;;5112258;28;20054;-88
2022/07/13 09:50:36;;;;;;;0.00;0.00;;;30.60;35.40;;;;;;5107960;28;20024;-87
2022/07/13 09:53:03;;;;;;;0.00;0.00;;;31.10;34.80;;;;;;5102703;28;20103;-87
2022/07/13 09:55:33;;;;;;;0.00;0.00;;;31.10;34.40;;;;;;5110281;28;20055;-86
2022/07/13 09:58:05;;;;;;;0.00;0.00;;;31.10;33.20;;;;;;5090433;28;20121;-85
2022/07/13 10:00:32;;;;;;;0.00;0.00;;;31.30;31.00;;;;;;5120465;28;20043;-84
2022/07/13 10:02:59;;;;;;;0.00;0.00;;;31.20;32.10;;;;;;5104720;28;20008;-85
2022/07/13 10:05:26;;;;;;;0.00;0.00;;;30.90;32.10;;;;;;5110186;28;20074;-90
2022/07/13 10:07:53;;;;;;;0.00;0.00;;;30.80;32.90;;;;;;5102274;28;20473;-88
2022/07/13 10:10:19;;;;;;;0.00;0.00;;;30.40;33.00;;;;;;5104457;28;20032;-88
2022/07/13 10:12:45;;;;;;;0.00;0.00;;;29.70;35.00;;;;;;5115352;28;20032;-88
2022/07/13 10:15:12;;;;;;;0.00;0.00;;;29.30;39.00;;;;;;5129909;28;20011;-84
2022/07/13 10:17:47;;;;;;;0.00;0.00;;;28.90;41.20;;;;;;5104663;28;20020;-83
2022/07/13 10:20:21;;;;;;;0.00;0.00;;;28.40;42.50;;;;;;5119455;28;20034;-83
2022/07/13 10:22:48;;;;;;;0.00;0.00;;;28.10;43.50;;;;;;5144233;28;20020;-85
2022/07/13 10:25:17;;;;;;;3.40;0.45;;;28.20;43.00;;;;;;5114748;28;20038;-83
2022/07/13 10:27:43;;;;;;;0.00;0.00;;;28.00;42.40;;;;;;5140012;27;20031;-87
2022/07/13 10:30:19;;;;;;;0.00;0.00;;;27.80;43.30;;;;;;5100762;28;20066;-86
2022/07/13 10:32:46;;;;;;;0.10;0.10;;;28.00;42.30;;;;;;5109083;28;20037;-86
2022/07/13 10:35:20;;;;;;;1.55;0.22;;;28.10;43.00;;;;;;5102214;28;20016;-84
2022/07/13 10:38:01;;;;;;;0.60;0.50;;;28.00;43.80;;;;;;5106852;28;20066;-86
2022/07/13 10:40:32;;;;;;;0.90;0.50;;;27.60;44.80;;;;;;5089695;28;20069;-82
2022/07/13 10:42:59;;;;;;;0.00;0.00;;;27.40;44.80;;;;;;5101329;28;20020;-83
2022/07/13 10:45:44;;;;;;;0.30;0.30;;;27.20;45.40;;;;;;5109839;28;20015;-83
2022/07/13 10:48:22;;;;;;;0.10;0.10;;;27.20;45.70;;;;;;5114100;28;20106;-84
2022/07/13 10:50:57;;;;;;;0.98;0.30;;;26.80;46.60;;;;;;5091951;28;20054;-82
2022/07/13 10:53:38;;;;;;;0.30;0.30;;;26.90;46.00;;;;;;5115444;28;20587;-85
2022/07/13 10:56:20;;;;;;;1.60;0.60;;;27.10;46.30;;;;;;5116267;28;20027;-83
2022/07/13 10:58:50;;;;;;;0.45;0.30;;;27.10;46.30;;;;;;5111048;28;20031;-87
2022/07/13 11:01:35;;;;;;;0.80;0.43;;;27.20;46.20;;;;;;5108689;27;20429;-86
2022/07/13 11:04:03;;;;;;;0.85;0.55;;;27.20;44.10;;;;;;5112817;28;20039;-86
2022/07/13 11:06:32;;;;;;;3.03;2.40;;;27.10;44.00;;;;;;5120969;28;20019;-86
2022/07/13 11:09:24;;;;;;;0.10;0.10;;;26.80;44.60;;;;;;5123062;28;20027;-83
2022/07/13 11:11:53;;;;;;;0.00;0.00;;;26.70;44.10;;;;;;5090403;28;20055;-88
2022/07/13 11:14:41;;;;;;;1.27;1.20;;;26.70;43.80;;;;;;5117733;28;20051;-89
2022/07/13 11:17:24;;;;;;;0.75;0.55;;;26.80;43.00;;;;;;5116527;28;20015;-88
2022/07/13 11:20:07;;;;;;;0.32;0.20;;;26.70;43.40;;;;;;5105490;28;20049;-90
2022/07/13 11:25:26;;;;;;;0.00;0.00;;;26.30;45.30;;;;;;5119951;27;20026;-89
2022/07/13 11:28:22;;;;;;;0.00;0.00;;;26.50;45.20;;;;;;5114919;28;20423;-89
2022/07/13 11:30:54;;;;;;;0.00;0.00;;;26.60;45.50;;;;;;5095468;28;20378;-89
2022/07/13 11:33:20;;;;;;;0.00;0.00;;;26.50;45.90;;;;;;5109121;28;20077;-88
2022/07/13 11:35:47;;;;;;;0.00;0.00;;;26.30;46.70;;;;;;5104796;28;20355;-88
2022/07/13 11:38:15;;;;;;;0.00;0.00;;;26.40;46.10;;;;;;5116976;28;20043;-88
2022/07/13 11:40:41;;;;;;;0.00;0.00;;;26.60;45.40;;;;;;5109098;28;20031;-87
2022/07/13 11:43:10;;;;;;;0.00;0.00;;;26.90;48.70;;;;;;5116907;28;20478;-86
2022/07/13 11:45:40;;;;;;;0.00;0.00;;;26.60;46.70;;;;;;5100743;28;20030;-87
2022/07/13 11:48:10;;;;;;;0.00;0.00;;;26.30;47.30;;;;;;5127065;28;20015;-86
2022/07/13 11:50:50;;;;;;;0.00;0.00;;;26.20;49.20;;;;;;5118901;28;20024;-88
2022/07/13 11:53:21;;;;;;;0.00;0.00;;;26.10;50.70;;;;;;5082185;28;20032;-87
2022/07/13 11:55:47;;;;;;;0.00;0.00;;;26.10;59.50;;;;;;5104741;28;20525;-88
2022/07/13 11:58:29;;;;;;;3.08;2.85;;;25.90;61.40;;;;;;5122670;28;20046;-86
2022/07/13 12:00:56;;;;;;;0.52;0.52;;;25.70;54.90;;;;;;5132173;28;20031;-87
2022/07/13 12:03:26;;;;;;;3.25;3.05;;;25.40;54.60;;;;;;5119284;27;20030;-86
2022/07/13 12:05:57;;;;;;;0.00;0.00;;;25.20;53.60;;;;;;5116130;28;20095;-85
2022/07/13 12:08:24;;;;;;;0.20;0.20;;;25.10;53.10;;;;;;5112406;28;20553;-87
2022/07/13 12:10:50;;;;;;;2.72;0.40;;;25.00;52.20;;;;;;5078867;27;20024;-78
2022/07/13 12:13:17;;;;;;;2.42;0.32;;;25.10;52.10;;;;;;5102028;27;20043;-80
2022/07/13 12:15:44;;;;;;;0.00;0.00;;;25.20;52.50;;;;;;5100598;27;20030;-80
2022/07/13 12:18:12;;;;;;;0.00;0.00;;;25.30;52.40;;;;;;5095325;27;20425;-80
2022/07/13 12:20:38;;;;;;;0.00;0.00;;;25.30;52.50;;;;;;5104204;27;20073;-79
2022/07/13 12:23:08;;;;;;;0.00;0.00;;;25.40;52.60;;;;;;5097857;27;20049;-81
2022/07/13 12:25:41;;;;;;;0.20;0.10;;;25.50;52.50;;;;;;5100277;28;20020;-79
2022/07/13 12:28:09;;;;;;;0.00;0.00;;;25.70;52.70;;;;;;5089184;28;20089;-80
2022/07/13 12:30:40;;;;;;;0.00;0.00;;;26.00;53.50;;;;;;5104393;28;20079;-77
2022/07/13 12:33:11;;;;;;;0.05;0.05;;;26.20;60.60;;;;;;5099774;28;20024;-78
2022/07/13 12:35:40;;;;;;;0.00;0.00;;;26.10;57.20;;;;;;5107140;28;20023;-80
2022/07/13 12:38:12;;;;;;;0.10;0.10;;;26.00;55.90;;;;;;5104115;27;20126;-78
2022/07/13 12:40:57;;;;;;;0.00;0.00;;;25.90;53.50;;;;;;5113641;28;20031;-78
2022/07/13 12:43:29;;;;;;;0.00;0.00;;;25.90;52.30;;;;;;5089411;28;20220;-78
2022/07/13 12:45:59;;;;;;;0.00;0.00;;;25.70;52.90;;;;;;5109222;28;20051;-79
2022/07/13 12:48:28;;;;;;;0.00;0.00;;;25.90;53.50;;;;;;5105401;28;20470;-79
2022/07/13 12:51:12;;;;;;;0.80;0.80;;;25.90;53.50;;;;;;5101946;28;20055;-77
2022/07/13 12:54:01;;;;;;;0.10;0.10;;;25.90;53.70;;;;;;5114207;28;20020;-78
2022/07/13 12:56:50;;;;;;;0.10;0.10;;;25.90;53.90;;;;;;5111439;28;20031;-78
2022/07/13 12:59:22;;;;;;;0.00;0.00;;;25.80;53.30;;;;;;5110069;28;20028;-77
2022/07/13 13:01:53;;;;;;;0.10;0.10;;;25.90;53.40;;;;;;5103556;28;20020;-79
2022/07/13 13:04:19;;;;;;;0.25;0.25;;;25.70;52.70;;;;;;5097397;28;20426;-78